createdAt,value
2022-10-17T00:00:09.634Z,102093.91
2022-10-17T00:00:43.516Z,102090.38
2022-10-17T00:01:14.923Z,102098.41
2022-10-17T00:01:27.717Z,102095.75
2022-10-17T00:01:40.575Z,102095.75
2022-10-17T00:01:53.388Z,102099.38
2022-10-17T00:02:06.115Z,102092.19
2022-10-17T00:02:19.854Z,102103.75
2022-10-17T00:02:32.644Z,102102.91
2022-10-17T00:02:45.391Z,102102.91
2022-10-17T00:02:58.100Z,102099.28
2022-10-17T00:03:11.037Z,102102.91
2022-10-17T00:03:23.681Z,102100.22
2022-10-17T00:03:37.794Z,102093.91
2022-10-17T00:03:50.453Z,102097.47
2022-10-17T00:04:04.197Z,102097.47
2022-10-17T00:04:16.838Z,102100.16
2022-10-17T00:04:29.712Z,102099.28
2022-10-17T00:04:42.571Z,102099.28
2022-10-17T00:04:55.235Z,102105.50
2022-10-17T00:05:08.468Z,102094.81
2022-10-17T00:05:21.079Z,102101.94
2022-10-17T00:05:40.109Z,102099.28
2022-10-17T00:05:52.866Z,102096.59
2022-10-17T00:06:07.234Z,102095.75
2022-10-17T00:06:19.874Z,102092.19
2022-10-17T00:06:32.570Z,102098.41
2022-10-17T00:06:45.190Z,102097.56
2022-10-17T00:06:57.818Z,102095.75
2022-10-17T00:07:11.494Z,102096.69
2022-10-17T00:07:24.740Z,102091.34
2022-10-17T00:07:37.599Z,102100.31
2022-10-17T00:07:50.245Z,102096.69
2022-10-17T00:08:02.888Z,102094.97
2022-10-17T00:08:17.679Z,102094.13
2022-10-17T00:08:30.308Z,102095.81
2022-10-17T00:08:45.256Z,102095.03
2022-10-17T00:08:58.110Z,102089.69
2022-10-17T00:09:10.826Z,102089.69
2022-10-17T00:09:23.451Z,102095.03
2022-10-17T00:09:36.343Z,102084.34
2022-10-17T00:09:48.950Z,102088.84
2022-10-17T00:10:01.593Z,102081.66
2022-10-17T00:10:14.342Z,102092.38
2022-10-17T00:10:27.019Z,102095.03
2022-10-17T00:10:40.276Z,102089.81
2022-10-17T00:10:57.958Z,102088.00
2022-10-17T00:11:14.878Z,102079.97
2022-10-17T00:11:28.322Z,102082.72
2022-10-17T00:11:41.079Z,102085.31
2022-10-17T00:11:53.746Z,102089.81
2022-10-17T00:12:06.458Z,102087.13
2022-10-17T00:12:20.077Z,102079.09
2022-10-17T00:12:33.188Z,102085.31
2022-10-17T00:12:46.006Z,102080.91
2022-10-17T00:12:58.698Z,102085.31
2022-10-17T00:13:12.238Z,102082.63
2022-10-17T00:13:25.837Z,102082.63
2022-10-17T00:13:39.768Z,102088.75
2022-10-17T00:13:56.103Z,102087.00
2022-10-17T00:14:08.922Z,102081.59
2022-10-17T00:14:21.542Z,102084.34
2022-10-17T00:14:34.637Z,102078.91
2022-10-17T00:14:47.293Z,102078.06
2022-10-17T00:14:59.934Z,102080.72
2022-10-17T00:15:17.650Z,102080.72
2022-10-17T00:15:30.320Z,102078.06
2022-10-17T00:15:43.987Z,102078.91
2022-10-17T00:15:56.920Z,102085.13
2022-10-17T00:16:09.783Z,102073.56
2022-10-17T00:16:27.156Z,102074.59
2022-10-17T00:16:40.894Z,102078.06
2022-10-17T00:16:53.533Z,102077.09
2022-10-17T00:17:06.453Z,102081.59
2022-10-17T00:17:19.061Z,102085.13
2022-10-17T00:17:31.798Z,102083.41
2022-10-17T00:17:44.844Z,102080.81
2022-10-17T00:17:57.982Z,102076.31
2022-10-17T00:18:10.718Z,102072.78
2022-10-17T00:18:24.454Z,102077.28
2022-10-17T00:18:37.295Z,102079.97
2022-10-17T00:18:49.895Z,102075.53
2022-10-17T00:19:02.929Z,102079.09
2022-10-17T00:19:15.578Z,102076.44
2022-10-17T00:19:28.198Z,102080.03
2022-10-17T00:19:40.897Z,102078.22
2022-10-17T00:19:54.539Z,102074.69
2022-10-17T00:20:08.747Z,102076.50
2022-10-17T00:20:21.483Z,102080.03
2022-10-17T00:20:36.708Z,102077.38
2022-10-17T00:20:49.405Z,102072.88
2022-10-17T00:21:02.053Z,102069.34
2022-10-17T00:21:19.951Z,102077.38
2022-10-17T00:21:33.332Z,102079.19
2022-10-17T00:21:46.024Z,102074.78
2022-10-17T00:21:58.643Z,102081.88
2022-10-17T00:22:11.324Z,102072.09
2022-10-17T00:22:24.014Z,102082.72
2022-10-17T00:22:54.197Z,102076.50
2022-10-17T00:23:08.070Z,102081.88
2022-10-17T00:23:20.718Z,102083.56
2022-10-17T00:23:34.009Z,102083.56
2022-10-17T00:23:47.056Z,102088.91
2022-10-17T00:23:59.805Z,102085.38
2022-10-17T00:24:12.424Z,102093.34
2022-10-17T00:24:25.070Z,102087.13
2022-10-17T00:24:38.758Z,102085.31
2022-10-17T00:24:51.474Z,102085.31
2022-10-17T00:25:04.820Z,102082.72
2022-10-17T00:25:18.224Z,102093.34
2022-10-17T00:25:30.840Z,102088.91
2022-10-17T00:25:43.614Z,102089.81
2022-10-17T00:26:00.574Z,102095.16
2022-10-17T00:26:14.621Z,102092.50
2022-10-17T00:26:28.534Z,102099.63
2022-10-17T00:26:41.287Z,102091.59
2022-10-17T00:26:53.970Z,102094.28
2022-10-17T00:27:06.824Z,102094.28
2022-10-17T00:27:19.784Z,102097.84
2022-10-17T00:27:35.671Z,102098.78
2022-10-17T00:27:48.336Z,102091.59
2022-10-17T00:28:02.012Z,102100.50
2022-10-17T00:28:16.044Z,102099.63
2022-10-17T00:28:28.861Z,102097.91
2022-10-17T00:28:41.658Z,102097.91
2022-10-17T00:28:54.465Z,102101.53
2022-10-17T00:29:07.117Z,102104.22
2022-10-17T00:29:20.814Z,102094.47
2022-10-17T00:29:33.476Z,102100.69
2022-10-17T00:29:48.818Z,102101.53
2022-10-17T00:30:01.539Z,102102.41
2022-10-17T00:30:15.948Z,102102.41
2022-10-17T00:30:28.639Z,102091.72
2022-10-17T00:30:41.868Z,102105.94
2022-10-17T00:30:59.098Z,102093.50
2022-10-17T00:31:11.832Z,102100.59
2022-10-17T00:31:25.179Z,102098.00
2022-10-17T00:31:37.796Z,102098.84
2022-10-17T00:32:11.613Z,102093.63
2022-10-17T00:32:25.538Z,102098.13
2022-10-17T00:32:38.531Z,102091.03
2022-10-17T00:32:51.188Z,102093.69
2022-10-17T00:33:04.034Z,102090.25
2022-10-17T00:33:16.673Z,102096.56
2022-10-17T00:33:30.873Z,102096.56
2022-10-17T00:33:44.574Z,102089.47
2022-10-17T00:33:57.222Z,102098.47
2022-10-17T00:34:09.875Z,102093.13
2022-10-17T00:34:22.607Z,102098.47
2022-10-17T00:34:35.259Z,102098.47
2022-10-17T00:34:47.912Z,102093.13
2022-10-17T00:35:00.727Z,102090.44
2022-10-17T00:35:13.347Z,102098.47
2022-10-17T00:35:26.018Z,102095.81
2022-10-17T00:35:41.035Z,102094.81
2022-10-17T00:36:03.066Z,102097.44
2022-10-17T00:36:18.570Z,102099.25
2022-10-17T00:36:31.437Z,102099.25
2022-10-17T00:36:44.104Z,102100.09
2022-10-17T00:36:56.791Z,102103.63
2022-10-17T00:37:10.808Z,102098.28
2022-10-17T00:37:23.438Z,102105.38
2022-10-17T00:37:36.471Z,102109.84
2022-10-17T00:37:49.109Z,102105.38
2022-10-17T00:38:01.697Z,102106.22
2022-10-17T00:38:14.350Z,102106.31
2022-10-17T00:38:26.976Z,102103.63
2022-10-17T00:38:41.340Z,102104.59
2022-10-17T00:38:56.264Z,102106.31
2022-10-17T00:39:09.749Z,102110.72
2022-10-17T00:39:22.462Z,102103.63
2022-10-17T00:39:35.084Z,102106.22
2022-10-17T00:39:47.742Z,102106.22
2022-10-17T00:40:00.759Z,102107.09
2022-10-17T00:40:14.762Z,102112.44
2022-10-17T00:40:27.495Z,102108.81
2022-10-17T00:40:40.143Z,102108.81
2022-10-17T00:40:53.003Z,102103.47
2022-10-17T00:41:08.088Z,102106.16
2022-10-17T00:41:23.658Z,102107.84
2022-10-17T00:41:37.393Z,102104.22
2022-10-17T00:41:50.061Z,102106.88
2022-10-17T00:42:02.847Z,102107.78
2022-10-17T00:42:15.562Z,102101.53
2022-10-17T00:42:28.529Z,102105.09
2022-10-17T00:42:41.415Z,102105.09
2022-10-17T00:42:54.087Z,102109.47
2022-10-17T00:43:15.609Z,102102.31
2022-10-17T00:43:29.703Z,102107.66
2022-10-17T00:43:58.226Z,102107.66
2022-10-17T00:44:47.012Z,102104.97
2022-10-17T00:45:18.128Z,102104.97
2022-10-17T00:45:31.405Z,102103.28
2022-10-17T00:45:44.134Z,102103.28
2022-10-17T00:45:57.106Z,102100.59
2022-10-17T00:46:09.774Z,102103.28
2022-10-17T00:46:24.737Z,102108.63
2022-10-17T00:46:40.060Z,102098.78
2022-10-17T00:46:52.920Z,102113.97
2022-10-17T00:47:09.698Z,102102.41
2022-10-17T00:47:23.222Z,102096.19
2022-10-17T00:47:36.864Z,102097.06
2022-10-17T00:47:55.535Z,102096.19
2022-10-17T00:48:12.352Z,102100.69
2022-10-17T00:48:26.038Z,102094.47
2022-10-17T00:48:38.711Z,102095.44
2022-10-17T00:48:54.050Z,102096.28
2022-10-17T00:49:08.998Z,102092.75
2022-10-17T00:49:23.525Z,102086.53
2022-10-17T00:49:38.550Z,102098.13
2022-10-17T00:49:52.407Z,102092.75
2022-10-17T00:50:07.010Z,102090.16
2022-10-17T00:50:20.449Z,102096.38
2022-10-17T00:50:35.435Z,102087.56
2022-10-17T00:50:51.903Z,102095.59
2022-10-17T00:51:04.760Z,102101.81
2022-10-17T00:51:19.610Z,102092.94
2022-10-17T00:51:37.528Z,102094.66
2022-10-17T00:51:54.188Z,102093.78
2022-10-17T00:52:10.227Z,102094.66
2022-10-17T00:52:27.017Z,102090.25
2022-10-17T00:52:42.091Z,102089.31
2022-10-17T00:52:57.872Z,102096.38
2022-10-17T00:53:11.218Z,102100.03
2022-10-17T00:53:23.895Z,102096.38
2022-10-17T00:53:39.617Z,102085.75
2022-10-17T00:53:52.394Z,102093.69
2022-10-17T00:54:05.920Z,102094.66
2022-10-17T00:54:24.070Z,102091.03
2022-10-17T00:54:40.131Z,102095.53
2022-10-17T00:54:56.659Z,102088.44
2022-10-17T00:55:13.461Z,102094.56
2022-10-17T00:55:31.104Z,102093.63
2022-10-17T00:55:50.760Z,102088.34
2022-10-17T00:56:03.482Z,102089.13
2022-10-17T00:56:16.997Z,102083.75
2022-10-17T00:56:30.832Z,102094.47
2022-10-17T00:56:46.938Z,102087.22
2022-10-17T00:57:00.280Z,102085.47
2022-10-17T00:57:13.594Z,102080.13
2022-10-17T00:57:29.938Z,102083.69
2022-10-17T00:57:44.536Z,102081.88
2022-10-17T00:57:58.080Z,102082.72
2022-10-17T00:58:11.398Z,102076.50
2022-10-17T00:58:24.327Z,102075.53
2022-10-17T00:58:36.970Z,102076.50
2022-10-17T00:58:49.720Z,102075.53
2022-10-17T00:59:02.819Z,102071.16
2022-10-17T00:59:18.623Z,102073.84
2022-10-17T00:59:34.216Z,102068.47
2022-10-17T00:59:51.116Z,102069.41
2022-10-17T01:00:10.017Z,102074.78
2022-10-17T01:00:25.064Z,102073.06
2022-10-17T01:00:38.142Z,102071.34
2022-10-17T01:00:51.832Z,102073.16
2022-10-17T01:01:04.661Z,102072.28
2022-10-17T01:01:17.922Z,102074.97
2022-10-17T01:01:30.790Z,102071.53
2022-10-17T01:01:51.996Z,102072.50
2022-10-17T01:02:07.681Z,102079.63
2022-10-17T01:02:22.159Z,102073.44
2022-10-17T01:02:36.014Z,102075.25
2022-10-17T01:02:48.977Z,102077.06
2022-10-17T01:03:01.620Z,102075.25
2022-10-17T01:03:14.767Z,102077.06
2022-10-17T01:03:27.586Z,102082.41
2022-10-17T01:03:40.473Z,102078.00
2022-10-17T01:03:53.274Z,102083.34
2022-10-17T01:04:07.038Z,102084.31
2022-10-17T01:04:19.726Z,102081.66
2022-10-17T01:04:32.699Z,102079.91
2022-10-17T01:04:47.774Z,102079.06
2022-10-17T01:05:01.304Z,102084.31
2022-10-17T01:05:15.586Z,102086.16
2022-10-17T01:05:30.201Z,102092.34
2022-10-17T01:05:43.226Z,102083.47
2022-10-17T01:05:57.497Z,102095.03
2022-10-17T01:06:10.142Z,102094.06
2022-10-17T01:06:22.972Z,102087.94
2022-10-17T01:06:35.668Z,102093.28
2022-10-17T01:06:48.319Z,102091.50
2022-10-17T01:07:00.972Z,102095.97
2022-10-17T01:07:13.596Z,102092.44
2022-10-17T01:07:31.870Z,102089.69
2022-10-17T01:07:50.482Z,102094.91
2022-10-17T01:08:03.337Z,102091.31
2022-10-17T01:08:16.554Z,102092.16
2022-10-17T01:08:29.266Z,102094.81
2022-10-17T01:08:43.033Z,102086.81
2022-10-17T01:08:56.108Z,102092.06
2022-10-17T01:09:08.857Z,102081.38
2022-10-17T01:09:21.894Z,102088.44
2022-10-17T01:09:35.632Z,102088.44
2022-10-17T01:09:49.076Z,102088.34
2022-10-17T01:10:02.033Z,102098.13
2022-10-17T01:10:16.428Z,102090.94
2022-10-17T01:10:33.595Z,102087.28
2022-10-17T01:10:57.820Z,102095.25
2022-10-17T01:11:23.221Z,102093.34
2022-10-17T01:11:42.844Z,102088.84
2022-10-17T01:12:05.496Z,102090.66
2022-10-17T01:12:23.148Z,102094.13
2022-10-17T01:12:46.316Z,102094.88
2022-10-17T01:13:11.155Z,102092.19
2022-10-17T01:13:31.414Z,102093.91
2022-10-17T01:13:49.030Z,102093.91
2022-10-17T01:14:06.607Z,102099.28
2022-10-17T01:14:29.042Z,102092.13
2022-10-17T01:14:50.743Z,102101.94
2022-10-17T01:15:13.220Z,102092.19
2022-10-17T01:15:38.442Z,102102.91
2022-10-17T01:16:00.213Z,102097.56
2022-10-17T01:16:19.006Z,102099.38
2022-10-17T01:16:43.943Z,102097.56
2022-10-17T01:17:08.222Z,102097.56
2022-10-17T01:17:29.506Z,102101.16
2022-10-17T01:17:55.502Z,102100.22
2022-10-17T01:18:17.140Z,102101.16
2022-10-17T01:18:49.182Z,102101.16
2022-10-17T01:19:17.838Z,102106.53
2022-10-17T01:19:54.920Z,102105.59
2022-10-17T01:20:40.584Z,102111.03
2022-10-17T01:21:23.764Z,102115.31
2022-10-17T01:21:46.041Z,102112.66
2022-10-17T01:22:02.220Z,102113.53
2022-10-17T01:22:22.953Z,102118.88
2022-10-17T01:22:46.012Z,102116.13
2022-10-17T01:23:11.862Z,102113.44
2022-10-17T01:23:57.970Z,102109.84
2022-10-17T01:24:29.054Z,102109.84
2022-10-17T01:24:55.362Z,102108.88
2022-10-17T01:25:27.854Z,102110.63
2022-10-17T01:25:52.663Z,102111.53
2022-10-17T01:26:17.274Z,102102.66
2022-10-17T01:26:44.469Z,102109.72
2022-10-17T01:27:18.610Z,102107.94
2022-10-17T01:27:58.044Z,102118.53
2022-10-17T01:28:22.760Z,102119.50
2022-10-17T01:29:07.938Z,102125.63
2022-10-17T01:29:43.994Z,102124.66
2022-10-17T01:30:17.595Z,102126.41
2022-10-17T01:30:46.254Z,102123.59
2022-10-17T01:31:10.881Z,102136.06
2022-10-17T01:31:29.788Z,102124.50
2022-10-17T01:31:47.133Z,102126.19
2022-10-17T01:32:03.998Z,102128.88
2022-10-17T01:32:20.086Z,102129.72
2022-10-17T01:32:39.155Z,102132.41
2022-10-17T01:32:58.489Z,102123.44
2022-10-17T01:33:15.714Z,102128.72
2022-10-17T01:33:57.323Z,102129.56
2022-10-17T01:34:19.828Z,102126.78
2022-10-17T01:34:39.536Z,102127.66
2022-10-17T01:34:58.250Z,102132.03
2022-10-17T01:35:16.506Z,102126.69
2022-10-17T01:35:36.943Z,102122.19
2022-10-17T01:36:01.720Z,102122.19
2022-10-17T01:36:28.371Z,102119.44
2022-10-17T01:36:48.300Z,102120.28
2022-10-17T01:37:05.828Z,102122.97
2022-10-17T01:37:25.820Z,102126.53
2022-10-17T01:37:45.907Z,102124.69
2022-10-17T01:38:08.047Z,102123.72
2022-10-17T01:38:25.173Z,102119.34
2022-10-17T01:38:46.906Z,102125.56
2022-10-17T01:39:05.574Z,102119.34
2022-10-17T01:39:26.882Z,102115.69
2022-10-17T01:39:47.902Z,102120.97
2022-10-17T01:40:07.626Z,102115.69
2022-10-17T01:40:25.706Z,102115.63
2022-10-17T01:40:46.123Z,102112.94
2022-10-17T01:41:03.298Z,102113.78
2022-10-17T01:41:25.676Z,102114.63
2022-10-17T01:41:42.453Z,102122.69
2022-10-17T01:42:03.131Z,102123.56
2022-10-17T01:42:23.460Z,102125.28
2022-10-17T01:42:42.299Z,102119.91
2022-10-17T01:42:59.654Z,102128.81
2022-10-17T01:43:21.249Z,102126.03
2022-10-17T01:43:40.960Z,102127.88
2022-10-17T01:43:58.907Z,102124.22
2022-10-17T01:44:18.712Z,102129.56
2022-10-17T01:44:37.956Z,102132.16
2022-10-17T01:44:56.255Z,102129.41
2022-10-17T01:45:15.667Z,102129.41
2022-10-17T01:45:33.966Z,102129.28
2022-10-17T01:45:53.463Z,102130.06
2022-10-17T01:46:12.978Z,102131.78
2022-10-17T01:46:32.970Z,102136.19
2022-10-17T01:46:50.825Z,102137.06
2022-10-17T01:47:06.686Z,102135.25
2022-10-17T01:47:21.923Z,102143.19
2022-10-17T01:47:35.228Z,102139.53
2022-10-17T01:47:52.931Z,102138.56
2022-10-17T01:48:11.043Z,102140.41
2022-10-17T01:48:27.740Z,102133.22
2022-10-17T01:48:44.256Z,102137.63
2022-10-17T01:49:00.826Z,102134.00
2022-10-17T01:49:17.507Z,102139.34
2022-10-17T01:49:32.506Z,102139.34
2022-10-17T01:49:48.225Z,102136.59
2022-10-17T01:50:05.278Z,102135.66
2022-10-17T01:50:23.490Z,102140.88
2022-10-17T01:50:41.601Z,102135.53
2022-10-17T01:51:00.806Z,102137.28
2022-10-17T01:51:19.816Z,102138.97
2022-10-17T01:51:37.689Z,102135.34
2022-10-17T01:51:55.959Z,102144.25
2022-10-17T01:52:12.948Z,102142.44
2022-10-17T01:52:30.324Z,102144.16
2022-10-17T01:52:48.309Z,102142.34
2022-10-17T01:53:06.050Z,102138.69
2022-10-17T01:53:22.677Z,102139.56
2022-10-17T01:53:40.710Z,102141.28
2022-10-17T01:53:59.468Z,102140.44
2022-10-17T01:54:17.600Z,102141.28
2022-10-17T01:54:36.086Z,102139.47
2022-10-17T01:54:52.814Z,102140.34
2022-10-17T01:55:10.358Z,102148.25
2022-10-17T01:55:28.620Z,102142.06
2022-10-17T01:55:44.172Z,102146.44
2022-10-17T01:56:01.244Z,102141.06
2022-10-17T01:56:16.382Z,102148.25
2022-10-17T01:56:32.614Z,102143.75
2022-10-17T01:56:48.247Z,102142.81
2022-10-17T01:57:07.039Z,102148.19
2022-10-17T01:57:27.235Z,102145.50
2022-10-17T01:57:42.965Z,102145.50
2022-10-17T01:58:00.165Z,102142.81
2022-10-17T01:58:17.029Z,102140.13
2022-10-17T01:58:34.852Z,102136.59
2022-10-17T01:58:52.402Z,102145.50
2022-10-17T01:59:09.868Z,102144.53
2022-10-17T01:59:26.437Z,102136.59
2022-10-17T01:59:41.834Z,102140.13
2022-10-17T01:59:57.646Z,102143.75
2022-10-17T02:00:15.556Z,102141.97
2022-10-17T02:00:30.112Z,102142.81
2022-10-17T02:00:45.407Z,102143.69
2022-10-17T02:01:03.630Z,102141.00
2022-10-17T02:01:18.869Z,102133.94
2022-10-17T02:01:33.199Z,102137.47
2022-10-17T02:01:51.086Z,102147.22
2022-10-17T02:02:06.152Z,102137.38
2022-10-17T02:02:21.029Z,102146.25
2022-10-17T02:02:35.116Z,102143.50
2022-10-17T02:02:52.034Z,102137.25
2022-10-17T02:03:08.913Z,102139.75
2022-10-17T02:03:22.480Z,102145.13
2022-10-17T02:03:35.982Z,102140.63
2022-10-17T02:03:51.274Z,102137.84
2022-10-17T02:04:05.805Z,102139.66
2022-10-17T02:04:19.042Z,102151.13
2022-10-17T02:04:31.725Z,102139.56
2022-10-17T02:04:47.027Z,102139.56
2022-10-17T02:05:24.601Z,102135.94
2022-10-17T02:05:39.698Z,102136.78
2022-10-17T02:05:52.592Z,102143.00
2022-10-17T02:06:06.621Z,102139.38
2022-10-17T02:06:20.330Z,102145.59
2022-10-17T02:06:35.328Z,102141.09
2022-10-17T02:06:48.043Z,102142.84
2022-10-17T02:07:06.700Z,102141.09
2022-10-17T02:07:19.349Z,102143.69
2022-10-17T02:07:31.965Z,102144.53
2022-10-17T02:07:45.644Z,102140.03
2022-10-17T02:07:58.351Z,102139.19
2022-10-17T02:08:11.614Z,102140.88
2022-10-17T02:08:28.256Z,102146.16
2022-10-17T02:08:43.699Z,102139.94
2022-10-17T02:08:56.392Z,102145.22
2022-10-17T02:09:21.087Z,102143.41
2022-10-17T02:09:33.731Z,102135.34
2022-10-17T02:09:46.428Z,102139.75
2022-10-17T02:09:59.055Z,102136.22
2022-10-17T02:10:19.632Z,102144.16
2022-10-17T02:10:39.636Z,102138.81
2022-10-17T02:10:57.704Z,102129.78
2022-10-17T02:11:15.466Z,102135.91
2022-10-17T02:11:28.668Z,102136.03
2022-10-17T02:11:41.782Z,102130.56
2022-10-17T02:12:15.484Z,102135.91
2022-10-17T02:12:48.699Z,102142.03
2022-10-17T02:13:09.520Z,102134.97
2022-10-17T02:13:34.115Z,102142.13
2022-10-17T02:14:09.608Z,102134.97
2022-10-17T02:14:33.136Z,102135.81
2022-10-17T02:15:00.598Z,102136.69
2022-10-17T02:15:35.939Z,102136.69
2022-10-17T02:16:07.343Z,102131.31
2022-10-17T02:16:27.758Z,102125.97
2022-10-17T02:16:48.196Z,102130.47
2022-10-17T02:17:13.868Z,102132.28
2022-10-17T02:17:36.448Z,102127.03
2022-10-17T02:17:57.652Z,102131.41
2022-10-17T02:18:36.603Z,102135.91
2022-10-17T02:19:06.932Z,102129.78
2022-10-17T02:19:45.330Z,102133.25
2022-10-17T02:20:07.294Z,102136.88
2022-10-17T02:20:26.854Z,102141.28
2022-10-17T02:20:49.463Z,102136.88
2022-10-17T02:21:08.504Z,102142.25
2022-10-17T02:21:30.716Z,102138.72
2022-10-17T02:21:51.691Z,102136.03
2022-10-17T02:22:21.978Z,102140.50
2022-10-17T02:22:41.193Z,102143.19
2022-10-17T02:22:59.006Z,102140.50
2022-10-17T02:23:20.930Z,102140.50
2022-10-17T02:23:43.356Z,102131.53
2022-10-17T02:24:07.366Z,102127.88
2022-10-17T02:24:30.081Z,102132.28
2022-10-17T02:24:50.066Z,102137.66
2022-10-17T02:25:13.030Z,102128.63
2022-10-17T02:25:36.838Z,102125.03
2022-10-17T02:25:55.866Z,102122.34
2022-10-17T02:26:17.290Z,102127.59
2022-10-17T02:26:34.232Z,102118.59
2022-10-17T02:26:54.114Z,102123.09
2022-10-17T02:27:13.149Z,102116.78
2022-10-17T02:27:35.436Z,102117.63
2022-10-17T02:27:52.933Z,102123.88
2022-10-17T02:28:17.421Z,102121.28
2022-10-17T02:28:38.102Z,102122.97
2022-10-17T02:29:02.843Z,102116.78
2022-10-17T02:29:19.549Z,102122.13
2022-10-17T02:29:36.986Z,102127.50
2022-10-17T02:29:57.243Z,102124.81
2022-10-17T02:30:15.706Z,102122.97
2022-10-17T02:30:35.372Z,102122.97
2022-10-17T02:30:53.719Z,102130.16
2022-10-17T02:31:15.523Z,102132.84
2022-10-17T02:31:33.812Z,102131.91
2022-10-17T02:31:51.132Z,102134.59
2022-10-17T02:32:07.266Z,102135.53
2022-10-17T02:32:25.734Z,102133.72
2022-10-17T02:32:47.994Z,102133.63
2022-10-17T02:33:07.387Z,102132.78
2022-10-17T02:33:26.943Z,102130.94
2022-10-17T02:33:44.324Z,102130.09
2022-10-17T02:33:59.940Z,102134.59
2022-10-17T02:34:18.585Z,102128.34
2022-10-17T02:34:36.686Z,102129.22
2022-10-17T02:34:52.965Z,102140.81
2022-10-17T02:35:10.886Z,102133.72
2022-10-17T02:35:25.728Z,102129.22
2022-10-17T02:35:42.051Z,102138.13
2022-10-17T02:35:59.751Z,102140.91
2022-10-17T02:36:17.466Z,102139.97
2022-10-17T02:36:35.946Z,102135.44
2022-10-17T02:36:51.733Z,102141.66
2022-10-17T02:37:07.222Z,102141.66
2022-10-17T02:37:23.879Z,102135.44
2022-10-17T02:37:37.380Z,102147.03
2022-10-17T02:37:52.985Z,102143.38
2022-10-17T02:38:08.918Z,102149.63
2022-10-17T02:38:23.117Z,102143.38
2022-10-17T02:38:35.975Z,102146.06
2022-10-17T02:38:51.006Z,102144.25
2022-10-17T02:39:06.706Z,102145.09
2022-10-17T02:39:22.302Z,102145.09
2022-10-17T02:39:37.353Z,102146.06
2022-10-17T02:39:50.982Z,102151.31
2022-10-17T02:40:05.098Z,102153.16
2022-10-17T02:40:21.426Z,102153.16
2022-10-17T02:40:35.954Z,102145.97
2022-10-17T02:40:51.676Z,102147.78
2022-10-17T02:41:08.885Z,102153.16
2022-10-17T02:41:24.372Z,102157.53
2022-10-17T02:41:38.779Z,102152.19
2022-10-17T02:41:53.270Z,102152.19
2022-10-17T02:42:10.446Z,102156.59
2022-10-17T02:42:26.396Z,102157.44
2022-10-17T02:42:41.900Z,102155.63
2022-10-17T02:42:55.504Z,102160.03
2022-10-17T02:43:08.274Z,102162.72
2022-10-17T02:43:22.434Z,102158.22
2022-10-17T02:43:36.578Z,102159.97
2022-10-17T02:43:51.288Z,102150.09
2022-10-17T02:44:05.918Z,102157.16
2022-10-17T02:44:21.308Z,102154.47
2022-10-17T02:44:35.237Z,102148.19
2022-10-17T02:44:49.170Z,102148.19
2022-10-17T02:45:03.926Z,102151.63
2022-10-17T02:45:17.070Z,102148.06
2022-10-17T02:45:35.867Z,102143.56
2022-10-17T02:45:49.634Z,102147.97
2022-10-17T02:46:02.410Z,102134.66
2022-10-17T02:46:21.213Z,102140.91
2022-10-17T02:46:36.734Z,102141.75
2022-10-17T02:46:56.050Z,102139.91
2022-10-17T02:47:18.283Z,102137.16
2022-10-17T02:47:35.128Z,102136.28
2022-10-17T02:47:54.880Z,102135.41
2022-10-17T02:48:12.357Z,102130.03
2022-10-17T02:48:32.072Z,102131.88
2022-10-17T02:48:49.909Z,102134.56
2022-10-17T02:49:08.978Z,102137.25
2022-10-17T02:49:26.217Z,102131.88
2022-10-17T02:49:43.970Z,102131.88
2022-10-17T02:49:59.622Z,102135.53
2022-10-17T02:50:12.600Z,102138.22
2022-10-17T02:50:30.017Z,102139.91
2022-10-17T02:50:52.433Z,102139.91
2022-10-17T02:51:13.663Z,102144.44
2022-10-17T02:51:33.510Z,102139.06
2022-10-17T02:51:52.850Z,102145.38
2022-10-17T02:52:10.898Z,102146.25
2022-10-17T02:52:32.135Z,102148.94
2022-10-17T02:52:51.288Z,102147.09
2022-10-17T02:53:09.320Z,102148.81
2022-10-17T02:53:27.418Z,102156.88
2022-10-17T02:53:48.242Z,102147.97
2022-10-17T02:54:09.700Z,102154.94
2022-10-17T02:54:29.278Z,102150.56
2022-10-17T02:54:46.028Z,102158.59
2022-10-17T02:55:03.917Z,102146.91
2022-10-17T02:55:19.370Z,102151.41
2022-10-17T02:55:34.434Z,102148.72
2022-10-17T02:55:55.855Z,102146.06
2022-10-17T02:56:16.673Z,102151.41
2022-10-17T02:56:34.071Z,102150.56
2022-10-17T02:56:50.933Z,102147.03
2022-10-17T02:57:11.986Z,102156.78
2022-10-17T02:57:31.126Z,102151.41
2022-10-17T02:57:48.172Z,102148.72
2022-10-17T02:58:06.574Z,102158.50
2022-10-17T02:58:22.138Z,102157.63
2022-10-17T02:58:37.730Z,102155.84
2022-10-17T02:58:55.604Z,102157.63
2022-10-17T02:59:13.298Z,102154.84
2022-10-17T02:59:27.529Z,102160.22
2022-10-17T02:59:42.313Z,102159.25
2022-10-17T02:59:58.337Z,102159.25
2022-10-17T03:00:14.574Z,102157.44
2022-10-17T03:00:29.914Z,102158.31
2022-10-17T03:00:43.415Z,102158.31
2022-10-17T03:00:56.303Z,102163.66
2022-10-17T03:01:09.371Z,102162.69
2022-10-17T03:01:24.448Z,102154.66
2022-10-17T03:01:37.325Z,102160.91
2022-10-17T03:01:51.620Z,102165.38
2022-10-17T03:02:06.038Z,102161.75
2022-10-17T03:02:18.820Z,102164.44
2022-10-17T03:02:39.982Z,102162.59
2022-10-17T03:02:54.548Z,102162.69
2022-10-17T03:03:19.284Z,102166.13
2022-10-17T03:03:33.341Z,102160.78
2022-10-17T03:03:46.995Z,102167.03
2022-10-17T03:04:10.630Z,102157.16
2022-10-17T03:04:23.522Z,102158.00
2022-10-17T03:04:36.168Z,102160.69
2022-10-17T03:04:48.812Z,102160.69
2022-10-17T03:05:01.488Z,102157.06
2022-10-17T03:05:17.689Z,102162.44
2022-10-17T03:05:30.318Z,102152.56
2022-10-17T03:05:43.007Z,102157.91
2022-10-17T03:05:55.790Z,102159.63
2022-10-17T03:06:08.500Z,102163.28
2022-10-17T03:06:21.178Z,102158.78
2022-10-17T03:06:33.855Z,102154.25
2022-10-17T03:06:49.046Z,102160.47
2022-10-17T03:07:01.684Z,102156.00
2022-10-17T03:07:14.506Z,102160.47
2022-10-17T03:07:27.144Z,102158.69
2022-10-17T03:07:40.072Z,102153.31
2022-10-17T03:07:53.405Z,102157.72
2022-10-17T03:08:06.081Z,102163.06
2022-10-17T03:08:19.831Z,102158.56
2022-10-17T03:08:32.534Z,102162.13
2022-10-17T03:08:45.414Z,102156.66
2022-10-17T03:08:58.044Z,102163.84
2022-10-17T03:09:10.831Z,102168.25
2022-10-17T03:09:23.658Z,102162.00
2022-10-17T03:09:36.304Z,102165.56
2022-10-17T03:09:48.954Z,102161.06
2022-10-17T03:10:01.602Z,102165.44
2022-10-17T03:10:15.320Z,102160.97
2022-10-17T03:10:27.958Z,102165.44
2022-10-17T03:10:40.654Z,102160.97
2022-10-17T03:10:53.326Z,102163.66
2022-10-17T03:11:06.152Z,102153.78
2022-10-17T03:11:18.796Z,102163.66
2022-10-17T03:11:31.539Z,102163.53
2022-10-17T03:11:45.176Z,102162.69
2022-10-17T03:11:57.807Z,102159.03